Agency Village, SD

10:39 PM CDT on October 25, 2014 (GMT -0500)
Wheaton Municipal | Change Station
CLOSE
Current Station
Airport
Location: Wheaton NDB,
Elevation: 1024 ft
Nearby Weather Stations

Elev 1024 ft 45.78 °N, 96.54 °W | Updated 3 minutes ago

Clear
Clear
36 °F
Feels Like 36 °F
N
0
Wind Variable Wind from North

Today
High -- | Low -- °F
--% Chance of Precip.
Yesterday
High -- | Low -- °F
Precip. -- in
7:58 AM 6:25 PM
Waxing Crescent, 5% visible
Pressure 30.06 in
Visibility 10.0 miles
Clouds Clear
Dew Point 27 °F
Humidity 70%
Rainfall 0.00 in
Snow Depth Not available.
UV 0 out of 12
Pollen 1.10 out of 12
Air Quality Not available.
Flu Activity Sporadic
METAR KETH 260336Z AUTO 00000KT 10SM CLR 02/M03 A3006 RMK AO2

More Conditions Fewer Conditions

Pressure 30.06 in
Visibility 10.0 miles
Clouds Clear
Dew Point 27 °F
Humidity 70%
Rainfall 0.00 in
Snow Depth Not available.
UV 0 out of 12
Pollen 1.10 out of 12
Air Quality Not available.
Flu Activity Sporadic
METAR KETH 260336Z AUTO 00000KT 10SM CLR 02/M03 A3006 RMK AO2

More Conditions Fewer Conditions

10-Day Weather Forecast

Almanac

Astronomy

Oct. 25, 2014 Rise Set
Actual Time 7:58 AM CDT 6:25 PM CDT
Civil Twilight 7:27 AM CDT 6:55 PM CDT
Nautical Twilight 6:53 AM CDT 7:30 PM CDT
Astronomical Twilight 6:18 AM CDT 8:05 PM CDT
Moon 9:42 AM CDT (10/25) 7:45 PM CDT (10/25)
Length of Visible Light 11h 28m
Length of Day
10h 27m
Tomorrow will be 2m 59s shorter.
Waxing Crescent, 5% of the Moon is Illuminated
Today
Waxing Crescent
Oct 30
First Quarter
Nov 6
Full
Nov 14
Last Quarter
Nov 22
New

Today's Extremes

State Highs State Lows

Community

WunderPhotos

Upload Photos

1,765,095 photos uploaded!

Nearby

Snow Depth

Station Depth Elevation
Blind Park 0 in 6890 ft

Earthquake Activity

City Distance Mag. Time & Date
No recent earthquake activity has been reported nearby.
Minimum magnitude displayed is 2.5.

Coastal Water Temperatures

Place Temperature
No Stations Reporting

Nearby Weather Stations